createdAt,value
2022-12-23T00:01:07.465Z,99146.13
2022-12-23T00:06:14.288Z,99149.00
2022-12-23T00:11:20.348Z,99141.97
2022-12-23T00:16:21.989Z,99139.47
2022-12-23T00:21:23.917Z,99127.50
2022-12-23T00:26:26.911Z,99111.00
2022-12-23T00:31:28.762Z,99101.34
2022-12-23T00:36:30.814Z,99094.97
2022-12-23T00:41:51.504Z,99087.63
2022-12-23T00:46:53.123Z,99072.00
2022-12-23T00:51:54.767Z,99075.00
2022-12-23T00:56:56.396Z,99066.31
2022-12-23T01:02:16.790Z,99069.00
2022-12-23T01:07:18.520Z,99068.66
2022-12-23T01:12:20.237Z,99074.97
2022-12-23T01:17:21.922Z,99069.66
2022-12-23T01:22:23.652Z,99060.31
2022-12-23T01:27:25.271Z,99053.81
2022-12-23T01:32:26.945Z,99050.31
2022-12-23T01:37:28.559Z,99041.63
2022-12-23T01:42:46.458Z,99040.47
2022-12-23T01:47:53.540Z,99042.47
2022-12-23T01:53:06.839Z,99034.66
2022-12-23T01:58:21.452Z,99040.47
2022-12-23T02:03:41.410Z,99038.16
2022-12-23T02:09:01.948Z,99029.66
2022-12-23T02:14:49.616Z,99031.97
2022-12-23T02:20:03.180Z,99034.66
2022-12-23T02:25:36.978Z,99032.97
2022-12-23T02:31:11.161Z,99029.16
2022-12-23T02:36:23.142Z,99035.31
2022-12-23T02:41:34.314Z,99022.63
2022-12-23T02:46:49.964Z,99018.63
2022-12-23T02:51:54.655Z,99015.28
2022-12-23T02:56:57.329Z,99015.31
2022-12-23T03:01:59.911Z,99016.78
2022-12-23T03:07:07.372Z,99013.28
2022-12-23T03:12:20.272Z,99013.25
2022-12-23T03:17:43.200Z,98997.25
2022-12-23T03:22:58.963Z,98995.59
2022-12-23T03:28:20.434Z,98996.94
2022-12-23T03:33:34.335Z,98999.75
2022-12-23T03:38:38.028Z,98994.44
2022-12-23T03:43:58.545Z,98998.38
2022-12-23T03:49:02.751Z,98997.22
2022-12-23T03:54:10.334Z,98997.22
2022-12-23T03:59:19.681Z,99002.03
2022-12-23T04:04:38.097Z,99004.41
2022-12-23T04:09:39.748Z,99007.22
2022-12-23T04:14:47.748Z,99006.53
2022-12-23T04:19:49.453Z,99008.84
2022-12-23T04:24:51.055Z,99002.72
2022-12-23T04:29:52.850Z,99011.03
2022-12-23T04:34:54.435Z,99016.38
2022-12-23T04:39:56.023Z,99005.81
2022-12-23T04:44:57.767Z,99004.09
2022-12-23T04:49:59.408Z,98994.09
2022-12-23T04:55:01.011Z,99000.44
2022-12-23T05:00:04.044Z,99000.06
2022-12-23T05:05:06.067Z,99008.75
2022-12-23T05:10:08.503Z,98992.38
2022-12-23T05:15:10.600Z,99001.72
2022-12-23T05:20:12.212Z,99000.69
2022-12-23T05:25:13.985Z,98993.28
2022-12-23T05:30:15.724Z,98988.19
2022-12-23T05:35:17.335Z,98993.38
2022-12-23T05:40:23.789Z,99008.84
2022-12-23T05:45:29.314Z,99010.84
2022-12-23T05:50:31.041Z,99002.97
2022-12-23T05:55:36.518Z,99001.97
2022-12-23T06:00:38.138Z,99013.59
2022-12-23T06:05:40.515Z,99003.03
2022-12-23T06:10:42.146Z,99015.59
2022-12-23T06:15:43.789Z,99031.09
2022-12-23T06:20:47.278Z,99027.78
2022-12-23T06:25:48.897Z,99034.44
2022-12-23T06:30:57.405Z,99033.59
2022-12-23T06:35:59.048Z,99051.78
2022-12-23T06:41:00.894Z,99052.44
2022-12-23T06:46:02.703Z,99053.44
2022-12-23T06:51:04.581Z,99059.47
2022-12-23T06:56:06.579Z,99056.13
2022-12-23T07:01:10.006Z,99061.47
2022-12-23T07:06:11.944Z,99072.69
2022-12-23T07:11:13.556Z,99072.53
2022-12-23T07:16:15.441Z,99064.84
2022-12-23T07:21:26.488Z,99070.72
2022-12-23T07:26:30.561Z,99074.38
2022-12-23T07:31:32.282Z,99076.44
2022-12-23T07:36:33.976Z,99093.94
2022-12-23T07:41:35.659Z,99095.97
2022-12-23T07:46:41.096Z,99098.66
2022-12-23T07:51:42.783Z,99097.28
2022-12-23T07:56:44.362Z,99100.25
2022-12-23T08:01:46.170Z,99100.47
2022-12-23T08:06:48.157Z,99108.63
2022-12-23T08:11:49.843Z,99113.50
2022-12-23T08:16:51.589Z,99107.13
2022-12-23T08:21:53.257Z,99103.63
2022-12-23T08:26:54.957Z,99097.91
2022-12-23T08:31:56.677Z,99104.41
2022-12-23T08:36:58.273Z,99097.22
2022-12-23T08:42:00.010Z,99107.75
2022-12-23T08:47:01.724Z,99106.56
2022-12-23T08:52:03.828Z,99120.91
2022-12-23T08:57:05.580Z,99125.88
2022-12-23T09:02:10.013Z,99127.19
2022-12-23T09:07:11.756Z,99133.50
2022-12-23T09:12:13.473Z,99133.50
2022-12-23T09:17:15.145Z,99135.16
2022-12-23T09:22:16.782Z,99131.47
2022-12-23T09:27:18.525Z,99133.97
2022-12-23T09:32:20.347Z,99131.09
2022-12-23T09:37:22.038Z,99134.63
2022-12-23T09:42:45.595Z,99140.41
2022-12-23T09:48:14.025Z,99153.09
2022-12-23T09:53:19.797Z,99149.44
2022-12-23T09:58:32.120Z,99152.09
2022-12-23T10:04:00.170Z,99155.38
2022-12-23T10:09:05.166Z,99155.50
2022-12-23T10:14:23.943Z,99164.00
2022-12-23T10:19:33.987Z,99165.00
2022-12-23T10:24:41.445Z,99167.81
2022-12-23T10:29:43.085Z,99168.94
2022-12-23T10:34:56.938Z,99153.00
2022-12-23T10:40:07.524Z,99155.31
2022-12-23T10:45:24.641Z,99159.28
2022-12-23T10:50:40.083Z,99152.75
2022-12-23T10:55:41.708Z,99139.19
2022-12-23T11:00:46.626Z,99141.66
2022-12-23T11:05:51.436Z,99137.97
2022-12-23T11:10:54.012Z,99142.50
2022-12-23T11:16:18.952Z,99148.31
2022-12-23T11:21:20.990Z,99151.66
2022-12-23T11:26:22.646Z,99153.31
2022-12-23T11:31:26.915Z,99156.19
2022-12-23T11:36:30.253Z,99163.06
2022-12-23T11:41:43.693Z,99156.72
2022-12-23T11:46:45.287Z,99174.13
2022-12-23T11:52:13.470Z,99175.25
2022-12-23T11:57:17.232Z,99172.88
2022-12-23T12:02:30.818Z,99179.50
2022-12-23T12:07:33.089Z,99177.66
2022-12-23T12:12:34.738Z,99187.75
2022-12-23T12:17:45.260Z,99169.28
2022-12-23T12:22:52.887Z,99163.25
2022-12-23T12:28:00.062Z,99168.53
2022-12-23T12:33:19.189Z,99166.16
2022-12-23T12:38:34.498Z,99163.91
2022-12-23T12:43:45.586Z,99162.81
2022-12-23T12:48:51.311Z,99165.22
2022-12-23T12:53:59.570Z,99168.16
2022-12-23T12:59:06.269Z,99163.53
2022-12-23T13:04:23.472Z,99167.59
2022-12-23T13:09:39.204Z,99159.75
2022-12-23T13:15:03.465Z,99161.97
2022-12-23T13:20:20.600Z,99165.03
2022-12-23T13:25:41.386Z,99161.78
2022-12-23T13:30:49.884Z,99153.38
2022-12-23T13:36:06.407Z,99147.72
2022-12-23T13:41:33.197Z,99153.09
2022-12-23T13:47:00.778Z,99156.47
2022-12-23T13:52:15.072Z,99147.81
2022-12-23T13:57:23.921Z,99149.84
2022-12-23T14:02:37.477Z,99144.09
2022-12-23T14:07:39.161Z,99133.47
2022-12-23T14:12:42.465Z,99141.41
2022-12-23T14:18:12.447Z,99125.72
2022-12-23T14:23:43.419Z,99134.13
2022-12-23T14:28:56.712Z,99125.63
2022-12-23T14:34:25.806Z,99135.31
2022-12-23T14:39:32.614Z,99132.34
2022-12-23T14:44:37.299Z,99136.03
2022-12-23T14:49:43.009Z,99134.56
2022-12-23T14:55:00.370Z,99124.22
2022-12-23T15:00:07.036Z,99120.22
2022-12-23T15:05:08.912Z,99125.53
2022-12-23T15:10:19.035Z,99120.22
2022-12-23T15:15:26.055Z,99116.63
2022-12-23T15:20:27.767Z,99122.00
2022-12-23T15:25:34.636Z,99128.34
2022-12-23T15:30:37.683Z,99141.75
2022-12-23T15:35:39.952Z,99134.72
2022-12-23T15:40:41.737Z,99130.19
2022-12-23T15:45:43.703Z,99110.50
2022-12-23T15:50:45.363Z,99115.22
2022-12-23T15:55:47.832Z,99113.00
2022-12-23T16:00:53.117Z,99096.47
2022-12-23T16:05:55.216Z,99105.06
2022-12-23T16:11:15.029Z,99110.75
2022-12-23T16:16:31.633Z,99110.41
2022-12-23T16:21:35.667Z,99105.41
2022-12-23T16:26:41.825Z,99112.88
2022-12-23T16:31:52.105Z,99094.22
2022-12-23T16:36:55.997Z,99099.41
2022-12-23T16:41:57.572Z,99094.78
2022-12-23T16:47:06.028Z,99097.09
2022-12-23T16:52:09.263Z,99099.13
2022-12-23T16:57:10.889Z,99092.44
2022-12-23T17:02:19.171Z,99085.75
2022-12-23T17:07:21.123Z,99082.47
2022-12-23T17:12:22.726Z,99083.13
2022-12-23T17:17:25.975Z,99072.69
2022-12-23T17:22:28.347Z,99060.88
2022-12-23T17:27:29.976Z,99060.31
2022-12-23T17:32:31.854Z,99047.16
2022-12-23T17:37:33.572Z,99035.94
2022-12-23T17:42:35.335Z,99026.91
2022-12-23T17:47:36.911Z,99019.09
2022-12-23T17:52:39.107Z,99004.94
2022-12-23T17:57:40.718Z,99017.19
2022-12-23T18:02:44.557Z,99003.19
2022-12-23T18:07:46.149Z,98999.38
2022-12-23T18:12:50.657Z,98989.13
2022-12-23T18:17:53.085Z,99000.63
2022-12-23T18:22:55.008Z,99012.28
2022-12-23T18:27:56.647Z,99000.47
2022-12-23T18:32:58.235Z,99001.19
2022-12-23T18:38:00.414Z,99008.53
2022-12-23T18:43:02.302Z,99009.50
2022-12-23T18:48:05.847Z,99006.16
2022-12-23T18:53:10.979Z,99000.88
2022-12-23T18:58:13.500Z,99002.94
2022-12-23T19:03:28.489Z,98998.16
2022-12-23T19:08:30.243Z,99004.66
2022-12-23T19:13:33.200Z,98989.06
2022-12-23T19:18:34.965Z,98993.72
2022-12-23T19:23:39.025Z,98971.22
2022-12-23T19:28:41.541Z,98951.63
2022-12-23T19:33:45.212Z,98948.03
2022-12-23T19:38:47.445Z,98940.63
2022-12-23T19:43:49.223Z,98927.44
2022-12-23T19:48:54.452Z,98910.16
2022-12-23T19:53:56.039Z,98890.44
2022-12-23T19:58:58.111Z,98890.44
2022-12-23T20:03:59.785Z,98867.09
2022-12-23T20:09:04.335Z,98860.06
2022-12-23T20:14:07.158Z,98847.72
2022-12-23T20:19:08.915Z,98832.34
2022-12-23T20:24:10.652Z,98827.72
2022-12-23T20:29:12.308Z,98831.84
2022-12-23T20:34:15.901Z,98841.19
2022-12-23T20:39:17.713Z,98833.22
2022-12-23T20:44:36.490Z,98839.25
2022-12-23T20:49:38.993Z,98822.28
2022-12-23T20:54:40.671Z,98823.38
2022-12-23T20:59:42.233Z,98835.28
2022-12-23T21:04:43.813Z,98831.06
2022-12-23T21:09:45.435Z,98858.13
2022-12-23T21:14:47.021Z,98845.03
2022-12-23T21:19:48.646Z,98830.31
2022-12-23T21:24:51.423Z,98827.91
2022-12-23T21:29:53.029Z,98812.69
2022-12-23T21:34:55.027Z,98807.63
2022-12-23T21:39:56.689Z,98813.69
2022-12-23T21:44:58.306Z,98796.22
2022-12-23T21:49:59.962Z,98804.50
2022-12-23T21:55:01.579Z,98802.56
2022-12-23T22:00:03.362Z,98793.91
2022-12-23T22:05:06.701Z,98791.75
2022-12-23T22:10:08.964Z,98789.91
2022-12-23T22:15:11.866Z,98787.91
2022-12-23T22:20:13.690Z,98795.28
2022-12-23T22:25:15.580Z,98801.19
2022-12-23T22:30:17.286Z,98800.84
2022-12-23T22:35:18.898Z,98818.63
2022-12-23T22:40:20.577Z,98820.66
2022-12-23T22:45:22.178Z,98834.19
2022-12-23T22:50:23.835Z,98833.19
2022-12-23T22:55:25.552Z,98861.88
2022-12-23T23:00:27.213Z,98854.25
2022-12-23T23:05:28.852Z,98866.72
2022-12-23T23:10:30.511Z,98876.16
2022-12-23T23:15:32.110Z,98879.72
2022-12-23T23:20:33.707Z,98871.16
2022-12-23T23:25:35.363Z,98882.50
2022-12-23T23:30:36.974Z,98873.47
2022-12-23T23:35:38.622Z,98884.91
2022-12-23T23:40:40.291Z,98884.06
2022-12-23T23:45:41.887Z,98886.84
2022-12-23T23:50:43.850Z,98891.09
2022-12-23T23:55:45.489Z,98880.84
